Pendleton, Texas
Current Conditions -  °F | °C
As of 11:35 AM on Thursday 30 Oct 2014 (Local Time) from KTPL Reporting Station
Scattered Clouds Scattered Clouds  
Wind Chill: 66°   Ceiling: Unl
Heat Index: 66°   Visibility: 10mi
Dew Point: 46°   Wind: 8mph
Humidity: 49%   Direction: 150°SSE
Pressure: 30.16"   Gusts: NA
Location:  31.19°N, 97.35°W
Report Text: KTPL 301635Z AUTO 15007KT 10SM FEW048 SCT050 19/08 A3016 RMK AO1
Loading
Personal Weather Stations






























Interactive Weather Map
Tropical Storm Tracking
New forecast layout! Learn more

10-Day Weather Forecast

Advertisements
Track Severe Weather on mobile